sensor_id;sensor_type;location;lat;lon;timestamp;pressure;altitude;pressure_sealevel;temperature;humidity
62928;BME280;51070;52.236;-0.892;2023-07-31T00:01:17;99799.98;;;16.72;100.00
62928;BME280;51070;52.236;-0.892;2023-07-31T00:03:42;99797.85;;;16.73;100.00
62928;BME280;51070;52.236;-0.892;2023-07-31T00:06:08;99796.80;;;16.74;100.00
62928;BME280;51070;52.236;-0.892;2023-07-31T00:08:33;99802.04;;;16.74;100.00
62928;BME280;51070;52.236;-0.892;2023-07-31T00:10:58;99796.11;;;16.75;100.00
62928;BME280;51070;52.236;-0.892;2023-07-31T00:13:24;99791.91;;;16.77;100.00
62928;BME280;51070;52.236;-0.892;2023-07-31T00:15:49;99785.94;;;16.80;100.00
62928;BME280;51070;52.236;-0.892;2023-07-31T00:18:15;99781.41;;;16.81;100.00
62928;BME280;51070;52.236;-0.892;2023-07-31T00:20:40;99776.35;;;16.82;100.00
62928;BME280;51070;52.236;-0.892;2023-07-31T00:23:06;99776.69;;;16.83;100.00
62928;BME280;51070;52.236;-0.892;2023-07-31T00:25:31;99766.21;;;16.83;100.00
62928;BME280;51070;52.236;-0.892;2023-07-31T00:27:57;99761.16;;;16.83;100.00
62928;BME280;51070;52.236;-0.892;2023-07-31T00:30:22;99756.45;;;16.84;100.00
62928;BME280;51070;52.236;-0.892;2023-07-31T00:32:48;99756.07;;;16.85;100.00
62928;BME280;51070;52.236;-0.892;2023-07-31T00:35:13;99751.87;;;16.87;100.00
62928;BME280;51070;52.236;-0.892;2023-07-31T00:37:38;99749.42;;;16.88;100.00
62928;BME280;51070;52.236;-0.892;2023-07-31T00:40:04;99742.96;;;16.89;100.00
62928;BME280;51070;52.236;-0.892;2023-07-31T00:42:30;99739.30;;;16.89;100.00
62928;BME280;51070;52.236;-0.892;2023-07-31T00:44:55;99735.96;;;16.90;100.00
62928;BME280;51070;52.236;-0.892;2023-07-31T00:47:21;99731.92;;;16.92;100.00
62928;BME280;51070;52.236;-0.892;2023-07-31T00:49:46;99731.02;;;16.95;100.00
62928;BME280;51070;52.236;-0.892;2023-07-31T00:52:12;99730.14;;;16.97;100.00
62928;BME280;51070;52.236;-0.892;2023-07-31T00:54:38;99728.90;;;16.99;100.00
62928;BME280;51070;52.236;-0.892;2023-07-31T00:57:04;99718.92;;;17.01;100.00
62928;BME280;51070;52.236;-0.892;2023-07-31T00:59:30;99723.80;;;17.01;100.00
62928;BME280;51070;52.236;-0.892;2023-07-31T01:01:55;99726.94;;;17.03;100.00
62928;BME280;51070;52.236;-0.892;2023-07-31T01:04:21;99719.77;;;17.05;100.00
62928;BME280;51070;52.236;-0.892;2023-07-31T01:09:40;99703.98;;;17.12;100.00
62928;BME280;51070;52.236;-0.892;2023-07-31T01:12:14;99703.43;;;17.15;100.00
62928;BME280;51070;52.236;-0.892;2023-07-31T01:14:39;99694.85;;;17.17;100.00
62928;BME280;51070;52.236;-0.892;2023-07-31T01:17:05;99692.02;;;17.18;100.00
62928;BME280;51070;52.236;-0.892;2023-07-31T01:19:30;99689.06;;;17.18;100.00
62928;BME280;51070;52.236;-0.892;2023-07-31T01:22:11;99687.66;;;17.19;100.00
62928;BME280;51070;52.236;-0.892;2023-07-31T01:27:12;99677.48;;;17.24;100.00
62928;BME280;51070;52.236;-0.892;2023-07-31T01:29:47;99673.46;;;17.25;100.00
62928;BME280;51070;52.236;-0.892;2023-07-31T01:32:14;99671.54;;;17.26;100.00
62928;BME280;51070;52.236;-0.892;2023-07-31T01:34:43;99665.59;;;17.27;100.00
62928;BME280;51070;52.236;-0.892;2023-07-31T01:37:09;99668.00;;;17.28;100.00
62928;BME280;51070;52.236;-0.892;2023-07-31T01:39:34;99663.97;;;17.30;100.00
62928;BME280;51070;52.236;-0.892;2023-07-31T01:42:00;99660.48;;;17.31;100.00
62928;BME280;51070;52.236;-0.892;2023-07-31T01:44:25;99657.33;;;17.32;100.00
62928;BME280;51070;52.236;-0.892;2023-07-31T01:46:50;99648.77;;;17.32;100.00
62928;BME280;51070;52.236;-0.892;2023-07-31T01:49:16;99650.49;;;17.33;100.00
62928;BME280;51070;52.236;-0.892;2023-07-31T01:51:41;99648.20;;;17.34;100.00
62928;BME280;51070;52.236;-0.892;2023-07-31T01:54:06;99644.52;;;17.35;100.00
62928;BME280;51070;52.236;-0.892;2023-07-31T01:56:32;99640.34;;;17.36;100.00
62928;BME280;51070;52.236;-0.892;2023-07-31T01:58:57;99639.29;;;17.35;100.00
62928;BME280;51070;52.236;-0.892;2023-07-31T02:01:22;99640.34;;;17.35;100.00
62928;BME280;51070;52.236;-0.892;2023-07-31T02:03:48;99636.84;;;17.35;100.00
62928;BME280;51070;52.236;-0.892;2023-07-31T02:06:14;99637.23;;;17.33;100.00
62928;BME280;51070;52.236;-0.892;2023-07-31T02:08:39;99640.55;;;17.33;100.00
62928;BME280;51070;52.236;-0.892;2023-07-31T02:11:04;99641.74;;;17.34;100.00
62928;BME280;51070;52.236;-0.892;2023-07-31T02:13:29;99634.41;;;17.34;100.00
62928;BME280;51070;52.236;-0.892;2023-07-31T02:15:55;99633.02;;;17.34;100.00
62928;BME280;51070;52.236;-0.892;2023-07-31T02:18:20;99626.27;;;17.31;100.00
62928;BME280;51070;52.236;-0.892;2023-07-31T02:20:50;99619.48;;;17.28;100.00
62928;BME280;51070;52.236;-0.892;2023-07-31T02:23:17;99609.73;;;17.26;100.00
62928;BME280;51070;52.236;-0.892;2023-07-31T02:25:43;99607.30;;;17.23;100.00
62928;BME280;51070;52.236;-0.892;2023-07-31T02:28:09;99604.90;;;17.20;100.00
62928;BME280;51070;52.236;-0.892;2023-07-31T02:30:35;99603.34;;;17.19;100.00
62928;BME280;51070;52.236;-0.892;2023-07-31T02:33:00;99606.14;;;17.19;100.00
62928;BME280;51070;52.236;-0.892;2023-07-31T02:35:25;99600.39;;;17.18;100.00
62928;BME280;51070;52.236;-0.892;2023-07-31T02:37:51;99594.99;;;17.17;100.00
62928;BME280;51070;52.236;-0.892;2023-07-31T02:40:16;99596.42;;;17.15;100.00
62928;BME280;51070;52.236;-0.892;2023-07-31T02:42:41;99588.41;;;17.13;100.00
62928;BME280;51070;52.236;-0.892;2023-07-31T02:45:07;99588.06;;;17.12;100.00
62928;BME280;51070;52.236;-0.892;2023-07-31T02:47:33;99589.64;;;17.11;100.00
62928;BME280;51070;52.236;-0.892;2023-07-31T02:49:58;99591.76;;;17.11;100.00
62928;BME280;51070;52.236;-0.892;2023-07-31T02:52:25;99592.48;;;17.10;100.00
62928;BME280;51070;52.236;-0.892;2023-07-31T02:54:50;99589.45;;;17.13;100.00
62928;BME280;51070;52.236;-0.892;2023-07-31T02:57:16;99592.58;;;17.15;100.00
62928;BME280;51070;52.236;-0.892;2023-07-31T02:59:41;99592.39;;;17.16;100.00
62928;BME280;51070;52.236;-0.892;2023-07-31T03:02:06;99591.14;;;17.17;100.00
62928;BME280;51070;52.236;-0.892;2023-07-31T03:04:32;99587.63;;;17.19;100.00
62928;BME280;51070;52.236;-0.892;2023-07-31T03:06:57;99583.09;;;17.20;100.00
62928;BME280;51070;52.236;-0.892;2023-07-31T03:09:23;99588.46;;;17.22;100.00
62928;BME280;51070;52.236;-0.892;2023-07-31T03:11:48;99590.02;;;17.24;100.00
62928;BME280;51070;52.236;-0.892;2023-07-31T03:14:14;99583.50;;;17.28;100.00
62928;BME280;51070;52.236;-0.892;2023-07-31T03:16:39;99578.25;;;17.28;100.00
62928;BME280;51070;52.236;-0.892;2023-07-31T03:19:04;99576.02;;;17.27;100.00
62928;BME280;51070;52.236;-0.892;2023-07-31T03:21:30;99582.79;;;17.29;100.00
62928;BME280;51070;52.236;-0.892;2023-07-31T03:23:55;99579.46;;;17.30;100.00
62928;BME280;51070;52.236;-0.892;2023-07-31T03:26:20;99579.98;;;17.30;100.00
62928;BME280;51070;52.236;-0.892;2023-07-31T03:28:46;99577.73;;;17.29;100.00
62928;BME280;51070;52.236;-0.892;2023-07-31T03:31:11;99571.80;;;17.28;100.00
62928;BME280;51070;52.236;-0.892;2023-07-31T03:33:37;99570.75;;;17.28;100.00
62928;BME280;51070;52.236;-0.892;2023-07-31T03:36:02;99566.73;;;17.29;100.00
62928;BME280;51070;52.236;-0.892;2023-07-31T03:38:27;99563.58;;;17.29;100.00
62928;BME280;51070;52.236;-0.892;2023-07-31T03:40:53;99564.45;;;17.30;100.00
62928;BME280;51070;52.236;-0.892;2023-07-31T03:43:18;99564.10;;;17.30;100.00
62928;BME280;51070;52.236;-0.892;2023-07-31T03:45:44;99559.21;;;17.31;100.00
62928;BME280;51070;52.236;-0.892;2023-07-31T03:48:09;99557.28;;;17.31;100.00
62928;BME280;51070;52.236;-0.892;2023-07-31T03:50:35;99554.66;;;17.31;100.00
62928;BME280;51070;52.236;-0.892;2023-07-31T03:53:00;99555.54;;;17.31;100.00
62928;BME280;51070;52.236;-0.892;2023-07-31T03:55:25;99551.36;;;17.30;100.00
62928;BME280;51070;52.236;-0.892;2023-07-31T03:57:51;99549.44;;;17.30;100.00
62928;BME280;51070;52.236;-0.892;2023-07-31T04:00:16;99554.16;;;17.28;100.00
62928;BME280;51070;52.236;-0.892;2023-07-31T04:02:41;99555.77;;;17.27;100.00
62928;BME280;51070;52.236;-0.892;2023-07-31T04:05:07;99551.60;;;17.25;100.00
62928;BME280;51070;52.236;-0.892;2023-07-31T04:07:33;99554.73;;;17.25;100.00
62928;BME280;51070;52.236;-0.892;2023-07-31T04:10:00;99557.17;;;17.27;100.00
62928;BME280;51070;52.236;-0.892;2023-07-31T04:12:25;99555.05;;;17.28;100.00
62928;BME280;51070;52.236;-0.892;2023-07-31T04:14:50;99550.87;;;17.27;100.00
62928;BME280;51070;52.236;-0.892;2023-07-31T04:17:17;99551.60;;;17.25;100.00
62928;BME280;51070;52.236;-0.892;2023-07-31T04:19:43;99546.70;;;17.26;100.00
62928;BME280;51070;52.236;-0.892;2023-07-31T04:22:08;99544.08;;;17.26;100.00
62928;BME280;51070;52.236;-0.892;2023-07-31T04:24:34;99541.28;;;17.26;100.00
62928;BME280;51070;52.236;-0.892;2023-07-31T04:26:59;99545.10;;;17.27;100.00
62928;BME280;51070;52.236;-0.892;2023-07-31T04:29:24;99552.27;;;17.27;100.00
62928;BME280;51070;52.236;-0.892;2023-07-31T04:31:50;99549.80;;;17.28;100.00
62928;BME280;51070;52.236;-0.892;2023-07-31T04:34:15;99545.77;;;17.30;100.00
62928;BME280;51070;52.236;-0.892;2023-07-31T04:36:40;99547.33;;;17.32;100.00
62928;BME280;51070;52.236;-0.892;2023-07-31T04:39:06;99550.27;;;17.33;100.00
62928;BME280;51070;52.236;-0.892;2023-07-31T04:41:31;99552.85;;;17.36;100.00
62928;BME280;51070;52.236;-0.892;2023-07-31T04:43:56;99554.17;;;17.40;100.00
62928;BME280;51070;52.236;-0.892;2023-07-31T04:46:22;99556.42;;;17.43;100.00
62928;BME280;51070;52.236;-0.892;2023-07-31T04:48:47;99558.98;;;17.46;100.00
62928;BME280;51070;52.236;-0.892;2023-07-31T04:51:12;99563.70;;;17.48;100.00
62928;BME280;51070;52.236;-0.892;2023-07-31T04:53:38;99560.20;;;17.46;100.00
62928;BME280;51070;52.236;-0.892;2023-07-31T04:56:04;99556.55;;;17.45;100.00
62928;BME280;51070;52.236;-0.892;2023-07-31T04:58:29;99563.36;;;17.45;100.00
62928;BME280;51070;52.236;-0.892;2023-07-31T05:00:55;99564.92;;;17.46;100.00
62928;BME280;51070;52.236;-0.892;2023-07-31T05:03:20;99556.86;;;17.48;100.00
62928;BME280;51070;52.236;-0.892;2023-07-31T05:05:45;99561.70;;;17.51;100.00
62928;BME280;51070;52.236;-0.892;2023-07-31T05:08:11;99559.58;;;17.54;100.00
62928;BME280;51070;52.236;-0.892;2023-07-31T05:10:36;99556.89;;;17.58;100.00
62928;BME280;51070;52.236;-0.892;2023-07-31T05:13:02;99553.39;;;17.59;100.00
62928;BME280;51070;52.236;-0.892;2023-07-31T05:15:28;99548.84;;;17.60;100.00
62928;BME280;51070;52.236;-0.892;2023-07-31T05:17:53;99553.36;;;17.62;100.00
62928;BME280;51070;52.236;-0.892;2023-07-31T05:20:19;99547.38;;;17.66;100.00
62928;BME280;51070;52.236;-0.892;2023-07-31T05:22:45;99551.00;;;17.69;100.00
62928;BME280;51070;52.236;-0.892;2023-07-31T05:25:10;99552.87;;;17.72;100.00
62928;BME280;51070;52.236;-0.892;2023-07-31T05:27:35;99552.45;;;17.76;100.00
62928;BME280;51070;52.236;-0.892;2023-07-31T05:30:01;99552.95;;;17.77;100.00
62928;BME280;51070;52.236;-0.892;2023-07-31T05:32:26;99554.00;;;17.78;100.00
62928;BME280;51070;52.236;-0.892;2023-07-31T05:34:52;99554.17;;;17.77;100.00
62928;BME280;51070;52.236;-0.892;2023-07-31T05:37:18;99548.77;;;17.77;100.00
62928;BME280;51070;52.236;-0.892;2023-07-31T05:39:43;99550.13;;;17.80;100.00
62928;BME280;51070;52.236;-0.892;2023-07-31T05:42:09;99552.09;;;17.88;100.00
62928;BME280;51070;52.236;-0.892;2023-07-31T05:44:34;99554.25;;;17.95;100.00
62928;BME280;51070;52.236;-0.892;2023-07-31T05:47:00;99550.45;;;18.03;100.00
62928;BME280;51070;52.236;-0.892;2023-07-31T05:49:25;99553.02;;;18.07;100.00
62928;BME280;51070;52.236;-0.892;2023-07-31T05:51:50;99555.29;;;18.07;100.00
62928;BME280;51070;52.236;-0.892;2023-07-31T05:54:16;99553.90;;;18.06;100.00
62928;BME280;51070;52.236;-0.892;2023-07-31T05:56:41;99555.13;;;18.06;100.00
62928;BME280;51070;52.236;-0.892;2023-07-31T05:59:09;99559.40;;;18.11;99.97
62928;BME280;51070;52.236;-0.892;2023-07-31T06:01:35;99566.63;;;18.18;99.51
62928;BME280;51070;52.236;-0.892;2023-07-31T06:04:01;99568.27;;;18.24;98.87
62928;BME280;51070;52.236;-0.892;2023-07-31T06:06:27;99569.96;;;18.28;98.29
62928;BME280;51070;52.236;-0.892;2023-07-31T06:08:53;99565.66;;;18.33;97.94
62928;BME280;51070;52.236;-0.892;2023-07-31T06:11:20;99560.15;;;18.38;97.19
62928;BME280;51070;52.236;-0.892;2023-07-31T06:13:45;99554.00;;;18.40;96.59
62928;BME280;51070;52.236;-0.892;2023-07-31T06:16:13;99552.80;;;18.39;96.39
62928;BME280;51070;52.236;-0.892;2023-07-31T06:18:39;99549.83;;;18.39;96.49
62928;BME280;51070;52.236;-0.892;2023-07-31T06:21:04;99544.39;;;18.40;96.14
62928;BME280;51070;52.236;-0.892;2023-07-31T06:23:29;99541.17;;;18.43;95.66
62928;BME280;51070;52.236;-0.892;2023-07-31T06:25:55;99540.41;;;18.47;95.40
62928;BME280;51070;52.236;-0.892;2023-07-31T06:28:20;99538.73;;;18.52;95.01
62928;BME280;51070;52.236;-0.892;2023-07-31T06:30:45;99532.41;;;18.54;94.37
62928;BME280;51070;52.236;-0.892;2023-07-31T06:33:11;99531.80;;;18.60;94.14
62928;BME280;51070;52.236;-0.892;2023-07-31T06:35:36;99527.25;;;18.68;93.95
62928;BME280;51070;52.236;-0.892;2023-07-31T06:38:02;99533.89;;;18.78;92.62
62928;BME280;51070;52.236;-0.892;2023-07-31T06:40:28;99533.41;;;18.84;92.46
62928;BME280;51070;52.236;-0.892;2023-07-31T06:42:53;99531.27;;;18.96;91.92
62928;BME280;51070;52.236;-0.892;2023-07-31T06:45:19;99532.70;;;19.01;91.20
62928;BME280;51070;52.236;-0.892;2023-07-31T06:47:46;99531.85;;;19.00;91.00
62928;BME280;51070;52.236;-0.892;2023-07-31T06:50:11;99528.70;;;18.93;90.16
62928;BME280;51070;52.236;-0.892;2023-07-31T06:52:36;99528.63;;;18.88;90.35
62928;BME280;51070;52.236;-0.892;2023-07-31T06:55:21;99522.46;;;18.80;90.10
62928;BME280;51070;52.236;-0.892;2023-07-31T06:57:53;99521.14;;;18.77;90.39
62928;BME280;51070;52.236;-0.892;2023-07-31T07:00:20;99519.23;;;18.83;90.07
62928;BME280;51070;52.236;-0.892;2023-07-31T07:02:46;99518.65;;;18.96;90.34
62928;BME280;51070;52.236;-0.892;2023-07-31T07:05:14;99531.61;;;19.04;89.62
62928;BME280;51070;52.236;-0.892;2023-07-31T07:07:40;99529.79;;;19.07;89.11
62928;BME280;51070;52.236;-0.892;2023-07-31T07:10:07;99537.50;;;19.15;88.79
62928;BME280;51070;52.236;-0.892;2023-07-31T07:12:33;99539.98;;;19.29;88.19
62928;BME280;51070;52.236;-0.892;2023-07-31T07:15:02;99541.00;;;19.48;87.58
62928;BME280;51070;52.236;-0.892;2023-07-31T07:17:29;99534.63;;;19.73;86.82
62928;BME280;51070;52.236;-0.892;2023-07-31T07:19:57;99536.06;;;19.86;83.99
62928;BME280;51070;52.236;-0.892;2023-07-31T07:22:23;99527.95;;;19.95;84.17
62928;BME280;51070;52.236;-0.892;2023-07-31T07:24:49;99521.61;;;20.03;84.01
62928;BME280;51070;52.236;-0.892;2023-07-31T07:27:14;99515.91;;;19.99;83.70
62928;BME280;51070;52.236;-0.892;2023-07-31T07:29:40;99516.13;;;19.92;83.19
62928;BME280;51070;52.236;-0.892;2023-07-31T07:32:06;99516.41;;;19.87;82.82
62928;BME280;51070;52.236;-0.892;2023-07-31T07:34:31;99520.10;;;19.80;81.62
62928;BME280;51070;52.236;-0.892;2023-07-31T07:36:56;99531.86;;;19.86;81.80
62928;BME280;51070;52.236;-0.892;2023-07-31T07:39:22;99532.60;;;19.99;80.96
62928;BME280;51070;52.236;-0.892;2023-07-31T07:41:47;99529.02;;;20.16;80.44
62928;BME280;51070;52.236;-0.892;2023-07-31T07:44:14;99528.47;;;20.38;79.70
62928;BME280;51070;52.236;-0.892;2023-07-31T07:46:40;99519.70;;;20.57;78.02
62928;BME280;51070;52.236;-0.892;2023-07-31T07:49:05;99521.55;;;20.67;78.02
62928;BME280;51070;52.236;-0.892;2023-07-31T07:51:31;99511.32;;;20.74;77.20
62928;BME280;51070;52.236;-0.892;2023-07-31T07:53:57;99504.41;;;20.76;76.90
62928;BME280;51070;52.236;-0.892;2023-07-31T07:56:23;99493.74;;;20.75;76.44
62928;BME280;51070;52.236;-0.892;2023-07-31T07:58:49;99497.13;;;20.61;75.68
62928;BME280;51070;52.236;-0.892;2023-07-31T08:01:15;99496.17;;;20.45;76.41
62928;BME280;51070;52.236;-0.892;2023-07-31T08:03:41;99486.63;;;20.34;77.29
62928;BME280;51070;52.236;-0.892;2023-07-31T08:06:07;99488.52;;;20.28;77.60
62928;BME280;51070;52.236;-0.892;2023-07-31T08:08:37;99489.50;;;20.24;77.42
62928;BME280;51070;52.236;-0.892;2023-07-31T08:11:03;99493.95;;;20.22;77.38
62928;BME280;51070;52.236;-0.892;2023-07-31T08:13:28;99501.02;;;20.20;76.69
62928;BME280;51070;52.236;-0.892;2023-07-31T08:15:54;99504.94;;;20.18;76.54
62928;BME280;51070;52.236;-0.892;2023-07-31T08:18:19;99511.44;;;20.18;76.85
62928;BME280;51070;52.236;-0.892;2023-07-31T08:20:45;99509.47;;;20.19;76.64
62928;BME280;51070;52.236;-0.892;2023-07-31T08:23:10;99503.10;;;20.27;76.87
62928;BME280;51070;52.236;-0.892;2023-07-31T08:25:36;99508.80;;;20.31;76.58
62928;BME280;51070;52.236;-0.892;2023-07-31T08:28:05;99500.41;;;20.23;76.51
62928;BME280;51070;52.236;-0.892;2023-07-31T08:30:32;99500.75;;;20.10;76.62
62928;BME280;51070;52.236;-0.892;2023-07-31T08:32:59;99497.96;;;19.96;76.22
62928;BME280;51070;52.236;-0.892;2023-07-31T08:35:25;99499.64;;;19.85;76.42
62928;BME280;51070;52.236;-0.892;2023-07-31T08:37:53;99489.50;;;19.77;77.22
62928;BME280;51070;52.236;-0.892;2023-07-31T08:40:18;99480.42;;;19.68;77.60
62928;BME280;51070;52.236;-0.892;2023-07-31T08:42:47;99479.41;;;19.66;77.99
62928;BME280;51070;52.236;-0.892;2023-07-31T08:45:20;99504.00;;;19.64;78.03
62928;BME280;51070;52.236;-0.892;2023-07-31T08:47:47;99516.38;;;19.59;78.09
62928;BME280;51070;52.236;-0.892;2023-07-31T08:50:15;99524.64;;;19.51;77.99
62928;BME280;51070;52.236;-0.892;2023-07-31T08:52:40;99520.35;;;19.47;77.93
62928;BME280;51070;52.236;-0.892;2023-07-31T08:55:07;99505.02;;;19.51;77.80
62928;BME280;51070;52.236;-0.892;2023-07-31T08:57:34;99505.92;;;19.63;77.51
62928;BME280;51070;52.236;-0.892;2023-07-31T09:00:01;99498.17;;;19.73;76.83
62928;BME280;51070;52.236;-0.892;2023-07-31T09:02:34;99489.46;;;19.85;76.92
62928;BME280;51070;52.236;-0.892;2023-07-31T09:05:04;99480.59;;;19.96;76.85
62928;BME280;51070;52.236;-0.892;2023-07-31T09:07:30;99476.24;;;20.02;76.29
62928;BME280;51070;52.236;-0.892;2023-07-31T09:09:57;99482.83;;;20.05;76.45
62928;BME280;51070;52.236;-0.892;2023-07-31T09:12:22;99484.91;;;20.12;76.36
62928;BME280;51070;52.236;-0.892;2023-07-31T09:14:48;99475.90;;;20.21;75.55
62928;BME280;51070;52.236;-0.892;2023-07-31T09:17:13;99474.48;;;20.28;75.07
62928;BME280;51070;52.236;-0.892;2023-07-31T09:19:38;99477.79;;;20.37;74.53
62928;BME280;51070;52.236;-0.892;2023-07-31T09:22:05;99474.96;;;20.44;74.19
62928;BME280;51070;52.236;-0.892;2023-07-31T09:24:33;99483.88;;;20.51;74.39
62928;BME280;51070;52.236;-0.892;2023-07-31T09:26:59;99481.68;;;20.54;73.83
62928;BME280;51070;52.236;-0.892;2023-07-31T09:29:26;99479.48;;;20.64;73.62
62928;BME280;51070;52.236;-0.892;2023-07-31T09:31:53;99474.27;;;20.75;73.61
62928;BME280;51070;52.236;-0.892;2023-07-31T09:34:20;99464.05;;;20.87;72.17
62928;BME280;51070;52.236;-0.892;2023-07-31T09:36:48;99461.05;;;20.94;72.57
62928;BME280;51070;52.236;-0.892;2023-07-31T09:39:14;99463.89;;;20.93;72.36
62928;BME280;51070;52.236;-0.892;2023-07-31T09:41:47;99470.48;;;20.90;72.20
62928;BME280;51070;52.236;-0.892;2023-07-31T09:44:13;99462.94;;;20.89;72.02
62928;BME280;51070;52.236;-0.892;2023-07-31T09:46:39;99463.23;;;20.91;71.68
62928;BME280;51070;52.236;-0.892;2023-07-31T09:49:08;99461.27;;;20.92;72.11
62928;BME280;51070;52.236;-0.892;2023-07-31T09:51:40;99467.23;;;21.04;71.39
62928;BME280;51070;52.236;-0.892;2023-07-31T09:54:15;99475.83;;;21.17;69.88
62928;BME280;51070;52.236;-0.892;2023-07-31T09:56:48;99472.03;;;21.43;70.09
62928;BME280;51070;52.236;-0.892;2023-07-31T09:59:20;99469.27;;;21.63;69.10
62928;BME280;51070;52.236;-0.892;2023-07-31T10:01:46;99473.82;;;21.59;68.95
62928;BME280;51070;52.236;-0.892;2023-07-31T10:04:13;99476.83;;;21.42;69.05
62928;BME280;51070;52.236;-0.892;2023-07-31T10:06:40;99477.27;;;21.27;68.57
62928;BME280;51070;52.236;-0.892;2023-07-31T10:09:09;99485.49;;;21.17;68.47
62928;BME280;51070;52.236;-0.892;2023-07-31T10:11:47;99483.99;;;21.15;68.91
62928;BME280;51070;52.236;-0.892;2023-07-31T10:14:18;99481.80;;;21.17;68.97
62928;BME280;51070;52.236;-0.892;2023-07-31T10:16:45;99471.00;;;21.14;69.67
62928;BME280;51070;52.236;-0.892;2023-07-31T10:19:10;99463.83;;;21.13;69.28
62928;BME280;51070;52.236;-0.892;2023-07-31T10:21:37;99456.70;;;21.16;69.12
62928;BME280;51070;52.236;-0.892;2023-07-31T10:24:04;99442.98;;;21.33;68.69
62928;BME280;51070;52.236;-0.892;2023-07-31T10:26:31;99442.64;;;21.49;68.58
62928;BME280;51070;52.236;-0.892;2023-07-31T10:28:58;99433.61;;;21.52;68.54
62928;BME280;51070;52.236;-0.892;2023-07-31T10:31:27;99441.55;;;21.46;68.10
62928;BME280;51070;52.236;-0.892;2023-07-31T10:33:54;99444.19;;;21.40;68.04
62928;BME280;51070;52.236;-0.892;2023-07-31T10:36:21;99441.29;;;21.31;66.74
62928;BME280;51070;52.236;-0.892;2023-07-31T10:38:50;99460.08;;;21.15;65.20
62928;BME280;51070;52.236;-0.892;2023-07-31T10:41:18;99471.90;;;21.01;64.50
62928;BME280;51070;52.236;-0.892;2023-07-31T10:43:46;99469.17;;;20.98;64.80
62928;BME280;51070;52.236;-0.892;2023-07-31T10:46:13;99478.39;;;21.13;65.01
62928;BME280;51070;52.236;-0.892;2023-07-31T10:48:40;99479.77;;;21.26;64.81
62928;BME280;51070;52.236;-0.892;2023-07-31T10:51:12;99489.19;;;21.34;65.08
62928;BME280;51070;52.236;-0.892;2023-07-31T10:53:39;99494.08;;;21.35;64.95
62928;BME280;51070;52.236;-0.892;2023-07-31T10:56:09;99495.00;;;21.21;64.65
62928;BME280;51070;52.236;-0.892;2023-07-31T10:58:38;99493.17;;;21.12;64.87
62928;BME280;51070;52.236;-0.892;2023-07-31T11:01:05;99494.33;;;21.03;65.40
62928;BME280;51070;52.236;-0.892;2023-07-31T11:03:46;99489.08;;;20.90;65.67
62928;BME280;51070;52.236;-0.892;2023-07-31T11:06:14;99468.71;;;20.73;65.77
62928;BME280;51070;52.236;-0.892;2023-07-31T11:08:44;99457.17;;;20.59;65.74
62928;BME280;51070;52.236;-0.892;2023-07-31T11:11:15;99458.00;;;20.48;65.70
62928;BME280;51070;52.236;-0.892;2023-07-31T11:13:51;99460.43;;;20.36;65.43
62928;BME280;51070;52.236;-0.892;2023-07-31T11:16:22;99465.33;;;20.29;65.03
62928;BME280;51070;52.236;-0.892;2023-07-31T11:18:48;99481.23;;;20.25;64.39
62928;BME280;51070;52.236;-0.892;2023-07-31T11:21:16;99502.56;;;20.22;63.24
62928;BME280;51070;52.236;-0.892;2023-07-31T11:23:46;99505.07;;;20.12;63.03
62928;BME280;51070;52.236;-0.892;2023-07-31T11:26:12;99513.61;;;20.01;62.97
62928;BME280;51070;52.236;-0.892;2023-07-31T11:28:38;99513.27;;;19.94;63.38
62928;BME280;51070;52.236;-0.892;2023-07-31T11:31:04;99512.73;;;19.87;63.45
62928;BME280;51070;52.236;-0.892;2023-07-31T11:33:30;99518.00;;;19.80;63.14
62928;BME280;51070;52.236;-0.892;2023-07-31T11:35:56;99519.62;;;19.71;62.52
62928;BME280;51070;52.236;-0.892;2023-07-31T11:38:22;99514.63;;;19.66;62.96
62928;BME280;51070;52.236;-0.892;2023-07-31T11:40:49;99503.48;;;19.64;63.21
62928;BME280;51070;52.236;-0.892;2023-07-31T11:43:15;99495.77;;;19.64;63.37
62928;BME280;51070;52.236;-0.892;2023-07-31T11:45:46;99497.80;;;19.66;63.55
62928;BME280;51070;52.236;-0.892;2023-07-31T11:48:20;99490.98;;;19.65;63.74
62928;BME280;51070;52.236;-0.892;2023-07-31T11:50:46;99489.85;;;19.62;63.75
62928;BME280;51070;52.236;-0.892;2023-07-31T11:53:12;99482.42;;;19.58;63.70
62928;BME280;51070;52.236;-0.892;2023-07-31T11:55:38;99472.89;;;19.61;63.16
62928;BME280;51070;52.236;-0.892;2023-07-31T11:58:04;99455.41;;;19.66;62.99
62928;BME280;51070;52.236;-0.892;2023-07-31T12:00:30;99454.02;;;19.73;62.68
62928;BME280;51070;52.236;-0.892;2023-07-31T12:02:56;99459.71;;;19.76;62.51
62928;BME280;51070;52.236;-0.892;2023-07-31T12:05:22;99449.77;;;19.75;62.41
62928;BME280;51070;52.236;-0.892;2023-07-31T12:07:50;99439.15;;;19.71;62.45
62928;BME280;51070;52.236;-0.892;2023-07-31T12:10:32;99428.17;;;19.69;62.84
62928;BME280;51070;52.236;-0.892;2023-07-31T12:15:38;99429.63;;;19.67;63.39
62928;BME280;51070;52.236;-0.892;2023-07-31T12:18:06;99432.08;;;19.59;63.23
62928;BME280;51070;52.236;-0.892;2023-07-31T12:20:32;99432.48;;;19.51;63.26
62928;BME280;51070;52.236;-0.892;2023-07-31T12:22:57;99432.27;;;19.45;63.64
62928;BME280;51070;52.236;-0.892;2023-07-31T12:25:29;99432.17;;;19.41;63.75
62928;BME280;51070;52.236;-0.892;2023-07-31T12:27:54;99429.97;;;19.37;63.90
62928;BME280;51070;52.236;-0.892;2023-07-31T12:30:34;99428.61;;;19.36;64.31
62928;BME280;51070;52.236;-0.892;2023-07-31T12:33:05;99430.58;;;19.34;64.70
62928;BME280;51070;52.236;-0.892;2023-07-31T12:35:38;99434.20;;;19.29;65.20
62928;BME280;51070;52.236;-0.892;2023-07-31T12:38:05;99430.14;;;19.23;65.37
62928;BME280;51070;52.236;-0.892;2023-07-31T12:40:31;99427.96;;;19.19;65.73
62928;BME280;51070;52.236;-0.892;2023-07-31T12:42:57;99426.30;;;19.15;66.42
62928;BME280;51070;52.236;-0.892;2023-07-31T12:45:22;99425.11;;;19.13;66.82
62928;BME280;51070;52.236;-0.892;2023-07-31T12:47:48;99415.68;;;19.12;67.22
62928;BME280;51070;52.236;-0.892;2023-07-31T12:50:14;99394.64;;;19.06;67.97